Time;durP1;ratioP1;P1;durP2;ratioP2;P2;SDS_P1;SDS_P2;PMS_P1;PMS_P2;Temp;Humidity;BMP_temperature;BMP_pressure;BME280_temperature;BME280_humidity;BME280_pressure;Samples;Min_cycle;Max_cycle;Signal;HPM_P1;HPM_P2
2022/12/25 00:00:03;;;;;;;16.38;4.13;;;;;;;;;;5049649;28;20473;-84
2022/12/25 00:02:28;;;;;;;16.45;3.88;;;;;;;;;;5048917;28;20044;-83
2022/12/25 00:04:53;;;;;;;12.80;3.53;;;;;;;;;;5048866;28;20410;-84
2022/12/25 00:07:18;;;;;;;11.43;3.28;;;;;;;;;;5048396;28;20021;-83
2022/12/25 00:09:44;;;;;;;15.63;3.70;;;;;;;;;;5049831;28;20427;-84
2022/12/25 00:12:09;;;;;;;14.32;3.58;;;;;;;;;;5049608;28;20025;-83
2022/12/25 00:14:34;;;;;;;13.50;3.10;;;;;;;;;;5034119;28;20079;-84
2022/12/25 00:17:00;;;;;;;12.13;3.55;;;;;;;;;;5049274;28;20028;-84
2022/12/25 00:19:25;;;;;;;9.55;3.78;;;;;;;;;;5030354;28;20037;-83
2022/12/25 00:21:50;;;;;;;16.55;4.38;;;;;;;;;;5037937;28;20025;-84
2022/12/25 00:24:15;;;;;;;8.70;3.40;;;;;;;;;;5049119;28;20017;-84
2022/12/25 00:26:40;;;;;;;16.25;3.60;;;;;;;;;;5033738;28;20369;-83
2022/12/25 00:29:05;;;;;;;11.60;3.70;;;;;;;;;;5047454;28;20033;-84
2022/12/25 00:31:31;;;;;;;21.20;4.18;;;;;;;;;;5049311;28;20022;-83
2022/12/25 00:33:56;;;;;;;7.95;3.17;;;;;;;;;;5049022;28;20030;-84
2022/12/25 00:36:22;;;;;;;13.50;3.67;;;;;;;;;;5048285;28;20413;-83
2022/12/25 00:38:47;;;;;;;11.65;3.25;;;;;;;;;;5027027;28;20057;-84
2022/12/25 00:42:17;;;;;;;10.25;3.40;;;;;;;;;;5028153;28;20385;-84
2022/12/25 00:44:03;;;;;;;18.73;4.03;;;;;;;;;;5033718;28;20100;-84
2022/12/25 00:46:28;;;;;;;10.85;3.55;;;;;;;;;;5033392;28;20068;-84
2022/12/25 00:48:53;;;;;;;15.35;3.22;;;;;;;;;;5049148;28;20021;-84
2022/12/25 00:51:18;;;;;;;16.08;3.13;;;;;;;;;;5047427;28;20029;-84
2022/12/25 00:53:43;;;;;;;11.82;3.63;;;;;;;;;;5048830;28;20010;-84
2022/12/25 00:56:09;;;;;;;8.40;2.83;;;;;;;;;;5048627;28;20426;-84
2022/12/25 00:58:34;;;;;;;11.68;3.38;;;;;;;;;;5048627;28;20021;-84
2022/12/25 01:00:59;;;;;;;8.98;2.83;;;;;;;;;;5048688;28;20055;-84
2022/12/25 01:03:25;;;;;;;5.07;2.83;;;;;;;;;;5044999;28;20026;-84
2022/12/25 01:05:58;;;;;;;10.45;3.03;;;;;;;;;;5031695;28;20048;-84
2022/12/25 01:08:23;;;;;;;;;;;;;;;;;;5048880;28;20021;-83
2022/12/25 01:10:58;;;;;;;11.38;3.33;;;;;;;;;;5048556;28;19912;-84
2022/12/25 01:13:24;;;;;;;10.43;3.38;;;;;;;;;;5048003;28;20255;-84
2022/12/25 01:15:51;;;;;;;10.25;3.33;;;;;;;;;;5046868;28;20113;-84
2022/12/25 01:18:16;;;;;;;10.70;3.05;;;;;;;;;;5048129;28;20124;-84
2022/12/25 01:20:41;;;;;;;6.75;2.17;;;;;;;;;;5019143;28;20152;-84
2022/12/25 01:23:06;;;;;;;11.27;2.90;;;;;;;;;;5047540;28;20024;-83
2022/12/25 01:25:32;;;;;;;9.55;2.40;;;;;;;;;;5048088;28;20010;-84
2022/12/25 01:27:57;;;;;;;12.27;3.13;;;;;;;;;;5043812;28;20921;-83
2022/12/25 01:30:22;;;;;;;6.90;2.28;;;;;;;;;;5031431;28;20465;-84
2022/12/25 01:32:47;;;;;;;11.40;2.30;;;;;;;;;;5032814;28;20052;-84
2022/12/25 01:35:12;;;;;;;9.65;3.25;;;;;;;;;;5048049;28;20104;-83
2022/12/25 01:37:38;;;;;;;6.78;2.20;;;;;;;;;;5047576;28;20631;-83
2022/12/25 01:40:03;;;;;;;10.15;2.53;;;;;;;;;;5035502;28;20021;-84
2022/12/25 01:42:28;;;;;;;8.00;2.33;;;;;;;;;;5032127;28;20063;-84
2022/12/25 01:44:53;;;;;;;5.82;2.35;;;;;;;;;;5032499;28;20056;-84
2022/12/25 01:47:19;;;;;;;5.38;2.10;;;;;;;;;;5032545;28;20097;-84
2022/12/25 01:49:46;;;;;;;12.88;2.80;;;;;;;;;;5031996;28;20465;-83
2022/12/25 01:52:14;;;;;;;8.93;2.30;;;;;;;;;;5031758;28;20095;-84
2022/12/25 01:54:39;;;;;;;12.02;2.38;;;;;;;;;;5031105;28;20071;-84
2022/12/25 01:57:06;;;;;;;6.90;2.00;;;;;;;;;;5047630;28;20013;-84
2022/12/25 01:59:31;;;;;;;7.82;2.60;;;;;;;;;;5047589;28;20025;-84
2022/12/25 02:01:57;;;;;;;10.25;2.13;;;;;;;;;;5031366;28;20036;-84
2022/12/25 02:04:37;;;;;;;4.60;1.90;;;;;;;;;;5031104;28;20484;-84
2022/12/25 02:07:22;;;;;;;8.00;2.30;;;;;;;;;;5047138;28;20068;-84
2022/12/25 02:09:48;;;;;;;8.20;2.30;;;;;;;;;;5031152;28;20128;-84
2022/12/25 02:12:18;;;;;;;7.00;2.28;;;;;;;;;;5030601;28;20059;-84
2022/12/25 02:14:43;;;;;;;10.02;2.10;;;;;;;;;;5025719;28;20044;-84
2022/12/25 02:17:15;;;;;;;8.20;2.40;;;;;;;;;;5030360;28;20381;-84
2022/12/25 02:20:00;;;;;;;8.85;2.55;;;;;;;;;;5047217;28;20083;-84
2022/12/25 02:22:37;;;;;;;6.95;2.40;;;;;;;;;;5030524;28;20176;-84
2022/12/25 02:25:09;;;;;;;9.45;2.50;;;;;;;;;;5033218;28;20432;-83
2022/12/25 02:27:34;;;;;;;;;;;;;;;;;;5030716;28;20097;-84
2022/12/25 02:30:07;;;;;;;4.35;2.28;;;;;;;;;;5031742;28;20378;-83
2022/12/25 02:32:36;;;;;;;12.55;2.53;;;;;;;;;;5046967;28;20271;-84
2022/12/25 02:35:05;;;;;;;10.55;2.47;;;;;;;;;;5030547;28;20025;-84
2022/12/25 02:37:33;;;;;;;7.35;2.03;;;;;;;;;;5046551;28;20481;-84
2022/12/25 02:40:09;;;;;;;8.57;2.50;;;;;;;;;;5044417;28;20025;-84
2022/12/25 03:07:40;;;;;;;5.15;2.15;;;;;;;;;;5031332;28;20029;-84
2022/12/25 03:13:03;;;;;;;8.57;2.00;;;;;;;;;;5031362;28;20043;-84
2022/12/25 03:18:14;;;;;;;7.05;2.05;;;;;;;;;;5017460;28;20098;-84
2022/12/25 03:29:07;;;;;;;3.13;1.65;;;;;;;;;;5031338;28;20094;-84
2022/12/25 03:31:38;;;;;;;7.97;2.08;;;;;;;;;;5045628;28;20120;-84
2022/12/25 03:41:20;;;;;;;6.97;1.95;;;;;;;;;;5034527;28;20025;-84
2022/12/25 04:38:09;;;;;;;5.65;1.38;;;;;;;;;;5033035;28;20052;-84
2022/12/25 04:40:34;;;;;;;5.90;1.52;;;;;;;;;;5036114;28;20442;-84
2022/12/25 04:43:00;;;;;;;4.15;1.23;;;;;;;;;;5048524;28;20538;-84
2022/12/25 04:45:25;;;;;;;4.55;1.20;;;;;;;;;;5032553;28;20704;-84
2022/12/25 04:47:50;;;;;;;6.43;1.48;;;;;;;;;;5049060;28;20033;-83
2022/12/25 04:50:15;;;;;;;8.20;1.35;;;;;;;;;;5048280;28;20023;-83
2022/12/25 04:52:41;;;;;;;3.55;1.40;;;;;;;;;;5033418;28;20434;-84
2022/12/25 04:55:06;;;;;;;3.58;1.30;;;;;;;;;;5033349;28;20017;-83
2022/12/25 04:57:32;;;;;;;6.35;1.67;;;;;;;;;;5032027;28;20030;-83
2022/12/25 04:59:57;;;;;;;6.60;1.85;;;;;;;;;;5033375;28;20453;-84
2022/12/25 05:02:22;;;;;;;3.97;1.30;;;;;;;;;;5048498;28;20048;-83
2022/12/25 05:04:48;;;;;;;4.60;1.40;;;;;;;;;;5033127;28;20016;-83
2022/12/25 05:07:13;;;;;;;4.07;1.33;;;;;;;;;;5048038;28;20385;-83
2022/12/25 05:09:41;;;;;;;5.40;1.30;;;;;;;;;;5047931;28;20044;-83
2022/12/25 05:12:07;;;;;;;4.32;1.38;;;;;;;;;;5048182;28;20025;-83
2022/12/25 05:14:32;;;;;;;4.82;1.30;;;;;;;;;;5048535;28;20029;-84
2022/12/25 05:16:57;;;;;;;8.65;1.73;;;;;;;;;;5048139;28;20052;-84
2022/12/25 05:19:23;;;;;;;6.82;1.50;;;;;;;;;;5048403;28;20021;-83
2022/12/25 05:21:48;;;;;;;6.82;2.00;;;;;;;;;;5039539;28;20025;-84
2022/12/25 05:24:13;;;;;;;6.47;1.73;;;;;;;;;;5041105;28;20030;-84
2022/12/25 05:26:38;;;;;;;6.53;1.40;;;;;;;;;;5032797;28;20013;-84
2022/12/25 05:29:03;;;;;;;10.05;1.35;;;;;;;;;;5047871;28;20079;-84
2022/12/25 05:31:28;;;;;;;8.02;1.52;;;;;;;;;;5047901;28;20025;-84
2022/12/25 05:33:54;;;;;;;10.88;1.63;;;;;;;;;;5047379;28;20125;-84
2022/12/25 05:36:19;;;;;;;3.22;1.50;;;;;;;;;;5047476;28;20064;-84
2022/12/25 05:38:44;;;;;;;4.72;1.33;;;;;;;;;;5042296;28;20469;-84
2022/12/25 05:41:09;;;;;;;4.88;1.50;;;;;;;;;;5024493;28;20201;-84
2022/12/25 05:43:35;;;;;;;8.45;1.88;;;;;;;;;;5047752;28;20025;-84
2022/12/25 05:46:04;;;;;;;4.63;1.15;;;;;;;;;;5046648;28;20076;-84
2022/12/25 05:48:29;;;;;;;8.40;1.73;;;;;;;;;;5032535;28;20026;-84
2022/12/25 05:50:55;;;;;;;5.97;1.50;;;;;;;;;;5047399;28;20463;-84
2022/12/25 05:53:20;;;;;;;8.13;1.23;;;;;;;;;;5047658;28;20054;-84
2022/12/25 05:55:45;;;;;;;4.93;1.20;;;;;;;;;;5047530;28;20072;-84
2022/12/25 05:58:11;;;;;;;8.75;1.20;;;;;;;;;;5046729;28;20013;-84
2022/12/25 06:00:36;;;;;;;3.25;1.05;;;;;;;;;;5046977;28;20064;-84
2022/12/25 06:03:02;;;;;;;4.80;0.93;;;;;;;;;;5047333;28;20021;-84
2022/12/25 06:05:27;;;;;;;5.28;0.80;;;;;;;;;;5046701;28;20078;-83
2022/12/25 06:07:53;;;;;;;9.38;1.67;;;;;;;;;;5047553;28;20030;-84
2022/12/25 06:10:18;;;;;;;4.15;1.08;;;;;;;;;;5046720;28;20504;-84
2022/12/25 06:12:43;;;;;;;1.90;0.75;;;;;;;;;;5047216;28;20025;-83
2022/12/25 06:15:09;;;;;;;3.92;0.90;;;;;;;;;;5032141;28;20032;-84
2022/12/25 06:17:34;;;;;;;5.68;1.38;;;;;;;;;;5031878;28;20028;-84
2022/12/25 06:19:59;;;;;;;6.93;1.20;;;;;;;;;;5032166;28;20384;-84
2022/12/25 06:22:28;;;;;;;5.53;1.00;;;;;;;;;;5034301;28;20022;-84
2022/12/25 06:24:53;;;;;;;4.60;1.05;;;;;;;;;;5045501;28;20101;-83
2022/12/25 06:27:18;;;;;;;3.63;1.42;;;;;;;;;;5046863;28;20048;-84
2022/12/25 06:29:44;;;;;;;7.13;1.20;;;;;;;;;;5031739;28;20520;-84
2022/12/25 06:32:09;;;;;;;5.95;0.95;;;;;;;;;;5031634;28;20097;-84
2022/12/25 06:34:34;;;;;;;2.72;1.05;;;;;;;;;;5046305;28;20031;-83
2022/12/25 06:36:59;;;;;;;3.60;1.27;;;;;;;;;;5046842;28;20116;-84
2022/12/25 06:39:24;;;;;;;5.05;1.17;;;;;;;;;;5031850;28;20029;-84
2022/12/25 06:41:50;;;;;;;2.53;1.23;;;;;;;;;;5046880;28;20053;-83
2022/12/25 06:44:15;;;;;;;3.20;1.10;;;;;;;;;;5047025;28;20013;-84
2022/12/25 06:46:40;;;;;;;3.05;1.25;;;;;;;;;;5045664;28;20025;-83
2022/12/25 06:49:05;;;;;;;4.78;1.60;;;;;;;;;;5031562;28;20040;-83
2022/12/25 06:51:31;;;;;;;5.68;1.20;;;;;;;;;;5031357;28;20017;-84
2022/12/25 06:53:56;;;;;;;6.18;1.63;;;;;;;;;;5046751;28;20388;-84
2022/12/25 06:56:23;;;;;;;7.65;1.30;;;;;;;;;;5046804;28;20433;-84
2022/12/25 06:58:54;;;;;;;7.20;1.55;;;;;;;;;;5045901;28;20121;-84
2022/12/25 07:01:20;;;;;;;7.78;1.40;;;;;;;;;;5046697;28;20766;-84
2022/12/25 07:03:47;;;;;;;4.10;1.30;;;;;;;;;;5030967;28;20034;-84
2022/12/25 07:06:12;;;;;;;6.72;1.20;;;;;;;;;;5030876;28;20075;-84
2022/12/25 07:08:37;;;;;;;5.95;1.42;;;;;;;;;;5031726;28;20052;-84
2022/12/25 07:11:03;;;;;;;4.00;1.13;;;;;;;;;;5025817;28;20054;-84
2022/12/25 07:13:28;;;;;;;3.40;1.42;;;;;;;;;;5032318;28;20031;-84
2022/12/25 07:15:57;;;;;;;6.18;1.83;;;;;;;;;;5048723;28;20029;-83
2022/12/25 07:18:22;;;;;;;1.98;1.10;;;;;;;;;;5034807;28;20025;-84
2022/12/25 07:20:47;;;;;;;5.10;0.70;;;;;;;;;;5030454;28;20033;-84
2022/12/25 07:23:13;;;;;;;3.65;1.40;;;;;;;;;;5034308;28;20053;-84
2022/12/25 07:25:38;;;;;;;7.90;0.90;;;;;;;;;;5033197;28;20420;-84
2022/12/25 07:28:03;;;;;;;7.93;1.42;;;;;;;;;;5030087;28;20053;-84
2022/12/25 07:30:28;;;;;;;4.93;1.20;;;;;;;;;;5049525;28;20442;-84
2022/12/25 07:32:53;;;;;;;7.40;1.40;;;;;;;;;;5016183;28;20029;-84
2022/12/25 07:35:19;;;;;;;5.15;1.30;;;;;;;;;;5031994;28;20029;-84
2022/12/25 07:37:44;;;;;;;5.20;1.20;;;;;;;;;;5049258;28;20029;-83
2022/12/25 07:40:09;;;;;;;7.95;1.65;;;;;;;;;;5033391;28;20032;-83
2022/12/25 07:42:35;;;;;;;6.70;2.30;;;;;;;;;;5026887;28;20096;-84
2022/12/25 07:45:00;;;;;;;5.55;2.40;;;;;;;;;;5032078;28;20388;-84
2022/12/25 07:47:25;;;;;;;3.40;1.55;;;;;;;;;;5027501;28;20105;-84
2022/12/25 07:49:50;;;;;;;5.35;1.90;;;;;;;;;;5032021;28;20025;-84
2022/12/25 07:52:15;;;;;;;4.50;1.67;;;;;;;;;;5031412;28;20018;-84
2022/12/25 07:54:41;;;;;;;4.30;1.60;;;;;;;;;;5035803;28;20562;-84
2022/12/25 07:57:06;;;;;;;5.55;1.65;;;;;;;;;;5027438;28;20021;-84
2022/12/25 07:59:31;;;;;;;8.52;1.70;;;;;;;;;;5030976;28;20540;-83
2022/12/25 08:01:57;;;;;;;11.70;2.10;;;;;;;;;;5040385;28;20407;-84
2022/12/25 08:04:22;;;;;;;3.55;1.35;;;;;;;;;;5047963;28;20033;-84
2022/12/25 08:06:47;;;;;;;6.22;1.50;;;;;;;;;;5029468;28;20024;-84
2022/12/25 08:09:12;;;;;;;3.03;1.45;;;;;;;;;;5030447;28;20402;-84
2022/12/25 08:11:38;;;;;;;4.47;1.65;;;;;;;;;;5035637;28;20029;-84
2022/12/25 08:14:07;;;;;;;5.25;1.63;;;;;;;;;;5048696;28;20017;-83
2022/12/25 08:16:32;;;;;;;8.02;1.73;;;;;;;;;;5031992;28;20385;-84
2022/12/25 08:18:57;;;;;;;8.00;3.17;;;;;;;;;;5049232;28;20025;-84
2022/12/25 08:21:22;;;;;;;5.07;2.20;;;;;;;;;;5043228;28;20029;-86
2022/12/25 08:23:48;;;;;;;7.57;2.45;;;;;;;;;;5036831;28;20030;-83
2022/12/25 08:26:15;;;;;;;7.18;2.47;;;;;;;;;;5031533;28;20017;-83
2022/12/25 08:28:40;;;;;;;9.57;2.88;;;;;;;;;;5047219;28;20028;-84
2022/12/25 08:31:16;;;;;;;8.15;2.35;;;;;;;;;;5045747;28;20021;-84
2022/12/25 08:33:42;;;;;;;6.55;2.40;;;;;;;;;;5024992;28;20029;-86
2022/12/25 08:36:08;;;;;;;8.43;2.00;;;;;;;;;;5034366;28;20179;-84
2022/12/25 08:38:33;;;;;;;6.70;1.77;;;;;;;;;;5033590;28;20026;-86
2022/12/25 08:40:58;;;;;;;4.05;1.50;;;;;;;;;;5034391;28;20446;-86
2022/12/25 08:43:24;;;;;;;6.30;1.75;;;;;;;;;;5031757;28;20045;-86
2022/12/25 08:45:49;;;;;;;4.03;1.77;;;;;;;;;;5027942;28;20034;-86
2022/12/25 08:48:14;;;;;;;5.70;2.22;;;;;;;;;;5046598;28;20523;-86
2022/12/25 08:50:43;;;;;;;6.82;2.60;;;;;;;;;;5032390;28;20060;-86
2022/12/25 08:53:08;;;;;;;11.02;2.65;;;;;;;;;;5032549;28;20033;-85
2022/12/25 08:55:34;;;;;;;6.82;2.33;;;;;;;;;;5034374;28;20457;-85
2022/12/25 08:57:59;;;;;;;6.15;2.17;;;;;;;;;;5030854;28;20070;-85
2022/12/25 09:00:24;;;;;;;5.90;2.20;;;;;;;;;;5031094;28;20025;-87
2022/12/25 09:02:49;;;;;;;5.32;2.70;;;;;;;;;;5032378;28;20056;-86
2022/12/25 09:05:14;;;;;;;5.68;2.63;;;;;;;;;;5033066;28;20017;-85
2022/12/25 09:07:40;;;;;;;8.48;2.95;;;;;;;;;;5036115;28;20025;-84
2022/12/25 09:10:05;;;;;;;11.23;2.85;;;;;;;;;;5043643;28;20032;-83
2022/12/25 09:12:31;;;;;;;6.03;2.60;;;;;;;;;;5010710;28;20055;-84
2022/12/25 09:14:56;;;;;;;6.97;3.10;;;;;;;;;;5030220;28;20033;-81
2022/12/25 09:17:21;;;;;;;9.85;3.65;;;;;;;;;;5037033;28;20033;-84
2022/12/25 09:19:46;;;;;;;11.07;3.35;;;;;;;;;;5027312;28;20207;-84
2022/12/25 09:22:11;;;;;;;10.30;4.60;;;;;;;;;;5028437;28;20096;-85
2022/12/25 09:24:38;;;;;;;5.93;3.53;;;;;;;;;;5039067;28;20452;-84
2022/12/25 09:27:03;;;;;;;8.48;3.20;;;;;;;;;;5026914;28;20100;-85
2022/12/25 09:29:28;;;;;;;10.80;3.58;;;;;;;;;;5033864;28;20052;-85
2022/12/25 09:31:54;;;;;;;8.43;3.10;;;;;;;;;;5043415;28;20445;-87
2022/12/25 09:34:19;;;;;;;9.77;3.45;;;;;;;;;;5043822;28;20025;-87
2022/12/25 09:36:44;;;;;;;5.88;3.40;;;;;;;;;;5025301;28;20019;-86
2022/12/25 09:39:09;;;;;;;9.40;4.03;;;;;;;;;;5050486;28;20025;-86
2022/12/25 09:41:51;;;;;;;10.75;4.03;;;;;;;;;;5043152;28;20025;-86
2022/12/25 09:44:20;;;;;;;7.15;3.55;;;;;;;;;;5026379;28;20094;-83
2022/12/25 09:46:48;;;;;;;6.50;3.63;;;;;;;;;;5037515;28;20507;-85
2022/12/25 09:49:13;;;;;;;6.65;3.22;;;;;;;;;;5032581;28;20061;-85
2022/12/25 09:51:41;;;;;;;6.82;3.40;;;;;;;;;;5045984;28;20106;-86
2022/12/25 09:54:11;;;;;;;5.57;2.95;;;;;;;;;;5028991;28;20021;-84
2022/12/25 09:56:36;;;;;;;12.05;3.22;;;;;;;;;;5038624;28;20091;-84
2022/12/25 09:59:02;;;;;;;7.18;3.00;;;;;;;;;;5033452;28;20025;-87
2022/12/25 10:01:30;;;;;;;9.35;2.90;;;;;;;;;;5033452;28;20101;-86
2022/12/25 10:04:25;;;;;;;6.03;2.40;;;;;;;;;;5045421;28;20551;-87
2022/12/25 10:07:09;;;;;;;4.55;1.98;;;;;;;;;;5037268;28;20028;-84
2022/12/25 10:09:34;;;;;;;3.88;1.95;;;;;;;;;;5043017;28;20480;-84
2022/12/25 10:12:32;;;;;;;6.55;1.77;;;;;;;;;;5046951;28;20025;-85
2022/12/25 10:15:00;;;;;;;5.40;2.38;;;;;;;;;;5043105;28;20105;-82
2022/12/25 10:17:37;;;;;;;15.15;3.92;;;;;;;;;;5027251;28;20043;-83
2022/12/25 10:20:03;;;;;;;8.43;4.13;;;;;;;;;;5047753;28;20021;-84
2022/12/25 10:22:36;;;;;;;5.93;2.95;;;;;;;;;;5026055;28;20729;-86
2022/12/25 10:25:02;;;;;;;6.35;2.63;;;;;;;;;;5032096;28;20013;-84
2022/12/25 10:27:28;;;;;;;4.70;2.75;;;;;;;;;;5032007;28;20012;-85
2022/12/25 10:29:55;;;;;;;8.40;3.60;;;;;;;;;;5028535;28;20063;-86
2022/12/25 10:32:21;;;;;;;6.22;3.80;;;;;;;;;;5023043;28;20022;-85
2022/12/25 10:34:47;;;;;;;7.47;3.53;;;;;;;;;;5021368;28;20077;-87
2022/12/25 10:37:12;;;;;;;10.23;3.97;;;;;;;;;;5052019;28;20033;-86
2022/12/25 10:39:38;;;;;;;6.47;2.92;;;;;;;;;;5028453;28;20018;-86
2022/12/25 10:42:09;;;;;;;4.55;2.58;;;;;;;;;;5042571;28;20416;-86
2022/12/25 10:44:34;;;;;;;5.97;2.25;;;;;;;;;;5027316;28;20017;-86
2022/12/25 10:47:01;;;;;;;8.07;2.17;;;;;;;;;;5033683;28;20070;-88
2022/12/25 10:49:31;;;;;;;5.57;2.33;;;;;;;;;;5036298;28;20075;-86
2022/12/25 10:51:57;;;;;;;8.15;3.67;;;;;;;;;;5032626;28;20105;-86
2022/12/25 10:54:22;;;;;;;7.63;3.63;;;;;;;;;;5045569;28;20549;-85
2022/12/25 10:56:59;;;;;;;9.45;4.47;;;;;;;;;;5031290;28;20026;-85
2022/12/25 10:59:26;;;;;;;11.60;6.10;;;;;;;;;;5031770;28;20049;-86
2022/12/25 11:01:52;;;;;;;11.82;5.90;;;;;;;;;;5048080;28;20152;-86
2022/12/25 11:04:21;;;;;;;14.73;6.93;;;;;;;;;;5036264;28;20049;-86
2022/12/25 11:07:05;;;;;;;16.20;6.40;;;;;;;;;;5039984;28;20043;-85
2022/12/25 11:09:31;;;;;;;7.32;4.10;;;;;;;;;;5031966;28;20477;-86
2022/12/25 11:11:56;;;;;;;8.40;4.05;;;;;;;;;;5044565;28;20029;-85
2022/12/25 11:14:22;;;;;;;7.63;4.20;;;;;;;;;;5038332;28;20024;-85
2022/12/25 11:16:47;;;;;;;7.03;3.28;;;;;;;;;;5037862;28;20040;-84
2022/12/25 11:19:29;;;;;;;8.15;3.80;;;;;;;;;;5034034;28;20422;-85
2022/12/25 11:21:56;;;;;;;7.30;4.35;;;;;;;;;;5041977;28;20539;-85
2022/12/25 11:24:24;;;;;;;9.35;4.75;;;;;;;;;;5033295;28;20052;-84
2022/12/25 11:26:51;;;;;;;5.97;4.13;;;;;;;;;;5045774;28;20063;-85
2022/12/25 11:29:34;;;;;;;9.90;4.82;;;;;;;;;;5037505;28;20021;-84
2022/12/25 11:32:01;;;;;;;10.52;5.25;;;;;;;;;;5033644;28;20368;-85
2022/12/25 11:34:29;;;;;;;12.52;6.43;;;;;;;;;;5034494;28;20091;-85
2022/12/25 11:36:54;;;;;;;14.52;6.43;;;;;;;;;;5043786;28;20049;-85
2022/12/25 11:39:22;;;;;;;10.90;5.47;;;;;;;;;;5055198;28;20048;-85
2022/12/25 11:41:49;;;;;;;10.32;5.40;;;;;;;;;;5037168;28;20104;-84
2022/12/25 11:44:26;;;;;;;8.25;4.63;;;;;;;;;;5052268;28;20079;-85
2022/12/25 11:46:53;;;;;;;8.38;4.57;;;;;;;;;;5040291;28;20491;-85
2022/12/25 11:49:20;;;;;;;12.18;6.20;;;;;;;;;;5034572;28;20037;-85
2022/12/25 11:51:48;;;;;;;15.13;6.28;;;;;;;;;;5030030;28;20018;-84
2022/12/25 11:54:23;;;;;;;14.98;6.38;;;;;;;;;;5037085;28;20029;-84
2022/12/25 11:56:48;;;;;;;12.63;5.45;;;;;;;;;;5044949;28;20183;-84
2022/12/25 11:59:26;;;;;;;12.73;5.93;;;;;;;;;;5034071;28;20429;-84
2022/12/25 12:01:55;;;;;;;10.98;5.07;;;;;;;;;;5026276;28;20030;-85
2022/12/25 12:04:27;;;;;;;9.13;4.60;;;;;;;;;;5013500;28;20401;-85
2022/12/25 12:06:55;;;;;;;9.43;5.07;;;;;;;;;;5053499;28;20020;-84
2022/12/25 12:09:24;;;;;;;10.77;5.85;;;;;;;;;;5035014;28;20059;-84
2022/12/25 12:12:00;;;;;;;13.88;6.05;;;;;;;;;;5047591;28;20473;-85
2022/12/25 12:14:33;;;;;;;13.10;6.53;;;;;;;;;;5049525;28;20075;-85
2022/12/25 12:16:58;;;;;;;11.10;5.97;;;;;;;;;;5058077;28;20417;-84
2022/12/25 12:19:29;;;;;;;13.95;6.15;;;;;;;;;;5037460;28;20279;-83
2022/12/25 12:21:55;;;;;;;11.52;6.13;;;;;;;;;;5025669;28;20014;-84
2022/12/25 12:24:22;;;;;;;16.05;6.75;;;;;;;;;;5021865;28;20318;-85
2022/12/25 12:26:58;;;;;;;15.45;7.65;;;;;;;;;;5035282;28;20307;-85
2022/12/25 12:29:44;;;;;;;14.63;7.85;;;;;;;;;;5028114;28;20029;-85
2022/12/25 12:32:38;;;;;;;12.32;7.60;;;;;;;;;;5025159;28;20037;-86
2022/12/25 12:35:17;;;;;;;20.02;10.35;;;;;;;;;;5030835;28;20033;-85
2022/12/25 12:37:45;;;;;;;22.58;11.35;;;;;;;;;;5034380;28;20022;-83
2022/12/25 12:40:21;;;;;;;18.55;10.18;;;;;;;;;;5050449;28;20044;-84
2022/12/25 12:42:49;;;;;;;19.20;9.02;;;;;;;;;;5028625;28;20481;-84
2022/12/25 12:45:16;;;;;;;21.13;10.05;;;;;;;;;;5046505;28;20018;-85
2022/12/25 12:47:43;;;;;;;17.92;9.73;;;;;;;;;;5034796;28;20032;-84
2022/12/25 12:50:27;;;;;;;20.55;10.00;;;;;;;;;;5052105;28;20037;-85
2022/12/25 12:52:52;;;;;;;19.75;9.77;;;;;;;;;;5036195;28;20086;-85
2022/12/25 12:55:26;;;;;;;19.45;9.70;;;;;;;;;;5051237;28;20417;-84
2022/12/25 12:57:57;;;;;;;17.48;9.57;;;;;;;;;;5042789;28;20018;-85
2022/12/25 13:00:22;;;;;;;15.23;8.45;;;;;;;;;;5025233;28;20037;-84
2022/12/25 13:02:47;;;;;;;14.85;8.73;;;;;;;;;;5030943;28;20013;-84
2022/12/25 13:05:12;;;;;;;15.73;9.50;;;;;;;;;;5032705;28;20095;-83
2022/12/25 13:07:49;;;;;;;18.77;9.60;;;;;;;;;;5034023;28;20025;-83
2022/12/25 13:10:34;;;;;;;16.95;9.48;;;;;;;;;;5023451;28;20091;-83
2022/12/25 13:13:14;;;;;;;15.15;8.65;;;;;;;;;;5024802;28;20021;-83
2022/12/25 13:15:39;;;;;;;14.32;8.00;;;;;;;;;;5045364;28;20056;-83
2022/12/25 13:18:06;;;;;;;8.90;5.35;;;;;;;;;;5032247;28;20033;-85
2022/12/25 13:20:55;;;;;;;9.15;5.28;;;;;;;;;;5027386;28;20101;-83
2022/12/25 13:23:20;;;;;;;9.48;5.15;;;;;;;;;;5041703;28;20385;-84
2022/12/25 13:25:50;;;;;;;7.75;4.65;;;;;;;;;;5045580;28;20090;-83
2022/12/25 13:28:15;;;;;;;8.68;4.28;;;;;;;;;;5051595;28;20021;-84
2022/12/25 13:30:41;;;;;;;10.18;5.38;;;;;;;;;;5045308;28;20040;-84
2022/12/25 13:33:11;;;;;;;8.95;4.75;;;;;;;;;;5018979;28;20029;-82
2022/12/25 13:35:41;;;;;;;8.60;4.50;;;;;;;;;;5043278;28;20500;-85
2022/12/25 13:38:10;;;;;;;8.85;4.35;;;;;;;;;;5049045;28;20049;-83
2022/12/25 13:40:36;;;;;;;9.57;3.92;;;;;;;;;;5043379;28;20032;-83
2022/12/25 13:43:01;;;;;;;8.05;3.63;;;;;;;;;;5036966;28;20022;-83
2022/12/25 13:45:27;;;;;;;6.20;3.40;;;;;;;;;;5044327;28;20056;-82
2022/12/25 13:47:53;;;;;;;7.75;4.00;;;;;;;;;;5030243;28;20021;-83
2022/12/25 13:50:18;;;;;;;11.27;4.45;;;;;;;;;;5029879;28;20046;-82
2022/12/25 13:52:43;;;;;;;7.30;3.97;;;;;;;;;;5035743;28;20056;-82
2022/12/25 13:55:17;;;;;;;8.35;3.90;;;;;;;;;;5028688;28;20017;-84
2022/12/25 13:57:44;;;;;;;8.23;4.50;;;;;;;;;;5045512;28;20026;-83
2022/12/25 14:00:18;;;;;;;8.38;4.43;;;;;;;;;;5029717;28;20025;-83
2022/12/25 14:02:43;;;;;;;8.07;4.70;;;;;;;;;;5031057;28;20524;-82
2022/12/25 14:05:41;;;;;;;11.15;4.80;;;;;;;;;;5030104;28;20041;-84
2022/12/25 14:08:18;;;;;;;6.88;4.40;;;;;;;;;;5045430;28;20033;-84
2022/12/25 14:10:44;;;;;;;10.50;4.90;;;;;;;;;;5045376;28;20029;-84
2022/12/25 14:13:11;;;;;;;8.70;4.78;;;;;;;;;;5025986;28;20120;-83
2022/12/25 14:15:37;;;;;;;6.93;4.10;;;;;;;;;;5046453;28;20424;-83
2022/12/25 14:18:03;;;;;;;8.20;4.47;;;;;;;;;;5049804;28;20026;-87
2022/12/25 14:20:32;;;;;;;7.45;4.25;;;;;;;;;;5024061;28;20021;-84
2022/12/25 14:22:58;;;;;;;6.68;4.47;;;;;;;;;;5040981;28;20457;-81
2022/12/25 14:25:29;;;;;;;9.27;3.90;;;;;;;;;;5022004;28;20022;-84
2022/12/25 14:27:54;;;;;;;7.07;4.55;;;;;;;;;;5037547;28;20017;-84
2022/12/25 14:30:19;;;;;;;9.25;4.65;;;;;;;;;;5044426;28;20044;-85
2022/12/25 14:32:46;;;;;;;13.05;5.50;;;;;;;;;;5030797;28;20025;-86
2022/12/25 14:35:12;;;;;;;11.15;5.82;;;;;;;;;;5030190;28;20039;-85
2022/12/25 14:37:37;;;;;;;13.13;6.40;;;;;;;;;;5023333;28;20468;-88
2022/12/25 14:40:20;;;;;;;10.32;6.35;;;;;;;;;;5041253;28;20067;-85
2022/12/25 14:42:53;;;;;;;14.27;6.63;;;;;;;;;;5027960;28;20026;-83
2022/12/25 14:45:26;;;;;;;15.00;7.28;;;;;;;;;;5042595;28;20516;-84
2022/12/25 14:47:56;;;;;;;14.32;8.35;;;;;;;;;;5044169;28;20021;-84
2022/12/25 14:50:24;;;;;;;16.77;9.27;;;;;;;;;;5028330;28;20116;-85
2022/12/25 14:52:50;;;;;;;18.40;9.18;;;;;;;;;;5043620;28;20026;-86
2022/12/25 14:55:20;;;;;;;17.60;9.57;;;;;;;;;;5016799;28;20508;-84
2022/12/25 14:57:46;;;;;;;17.73;8.82;;;;;;;;;;5023512;28;20469;-83
2022/12/25 15:00:18;;;;;;;18.75;11.32;;;;;;;;;;5046640;28;20029;-85
2022/12/25 15:02:44;;;;;;;20.67;10.27;;;;;;;;;;5039308;28;20083;-82
2022/12/25 15:05:27;;;;;;;18.77;10.00;;;;;;;;;;5030235;28;20243;-85
2022/12/25 15:08:05;;;;;;;21.52;11.30;;;;;;;;;;5027940;28;20036;-84
2022/12/25 15:10:30;;;;;;;23.05;10.98;;;;;;;;;;5036274;28;20034;-82
2022/12/25 15:12:56;;;;;;;19.48;9.75;;;;;;;;;;5027036;28;20496;-82
2022/12/25 15:15:21;;;;;;;23.38;10.63;;;;;;;;;;5046107;28;20314;-82
2022/12/25 15:17:46;;;;;;;17.65;9.45;;;;;;;;;;5034460;28;20030;-83
2022/12/25 15:20:12;;;;;;;21.60;11.48;;;;;;;;;;5025920;28;20025;-83
2022/12/25 15:22:37;;;;;;;18.88;10.05;;;;;;;;;;5019427;28;20125;-83
2022/12/25 15:25:03;;;;;;;15.55;8.10;;;;;;;;;;5045780;28;20413;-84
2022/12/25 15:27:28;;;;;;;13.55;7.30;;;;;;;;;;5038386;28;20409;-83
2022/12/25 15:29:53;;;;;;;14.60;8.13;;;;;;;;;;5026826;28;20017;-85
2022/12/25 15:32:20;;;;;;;13.70;7.70;;;;;;;;;;5027309;28;20033;-85
2022/12/25 15:34:48;;;;;;;13.23;8.05;;;;;;;;;;5048315;28;20025;-85
2022/12/25 15:37:13;;;;;;;24.27;12.90;;;;;;;;;;5051117;28;20021;-89
2022/12/25 15:39:38;;;;;;;99.95;42.80;;;;;;;;;;5033692;28;20025;-87
2022/12/25 15:42:11;;;;;;;37.45;17.92;;;;;;;;;;5031929;28;20107;-85
2022/12/25 15:44:36;;;;;;;26.95;13.52;;;;;;;;;;5032293;28;20477;-84
2022/12/25 15:47:02;;;;;;;23.25;12.50;;;;;;;;;;5032967;28;20025;-85
2022/12/25 15:49:27;;;;;;;24.98;12.82;;;;;;;;;;5031064;28;20036;-84
2022/12/25 15:51:52;;;;;;;21.20;11.00;;;;;;;;;;5029935;28;20385;-84
2022/12/25 15:54:17;;;;;;;16.10;9.07;;;;;;;;;;5030865;28;20358;-85
2022/12/25 15:56:44;;;;;;;21.55;10.82;;;;;;;;;;5028644;28;20710;-83
2022/12/25 15:59:10;;;;;;;21.08;11.43;;;;;;;;;;5031686;28;20033;-82
2022/12/25 16:01:36;;;;;;;24.13;11.90;;;;;;;;;;5033059;28;20503;-83
2022/12/25 16:04:01;;;;;;;23.05;11.57;;;;;;;;;;5032192;28;20013;-84
2022/12/25 16:06:26;;;;;;;27.50;13.73;;;;;;;;;;5032838;28;20041;-83
2022/12/25 16:08:51;;;;;;;25.25;11.93;;;;;;;;;;5033303;28;20422;-83
2022/12/25 16:11:16;;;;;;;29.02;13.40;;;;;;;;;;5023584;28;20014;-85
2022/12/25 16:13:42;;;;;;;27.95;14.43;;;;;;;;;;5029027;28;20031;-86
2022/12/25 16:16:07;;;;;;;26.35;13.63;;;;;;;;;;5032280;28;20017;-83
2022/12/25 16:18:33;;;;;;;29.13;13.52;;;;;;;;;;5035360;28;20087;-84
2022/12/25 16:20:58;;;;;;;22.63;12.80;;;;;;;;;;5030530;28;20104;-84